sensor_id;sensor_type;location;lat;lon;timestamp;P1;durP1;ratioP1;P2;durP2;ratioP2
56267;SDS011;42175;46.930;9.532;2023-04-24T00:00:05;3.17;;;0.85;;
56267;SDS011;42175;46.930;9.532;2023-04-24T00:02:32;4.50;;;1.02;;
56267;SDS011;42175;46.930;9.532;2023-04-24T00:04:58;4.45;;;0.70;;
56267;SDS011;42175;46.930;9.532;2023-04-24T00:07:27;2.42;;;1.52;;
56267;SDS011;42175;46.930;9.532;2023-04-24T00:09:52;6.22;;;0.80;;
56267;SDS011;42175;46.930;9.532;2023-04-24T00:12:18;3.88;;;1.02;;
56267;SDS011;42175;46.930;9.532;2023-04-24T00:14:44;4.05;;;1.35;;
56267;SDS011;42175;46.930;9.532;2023-04-24T00:17:10;3.15;;;0.90;;
56267;SDS011;42175;46.930;9.532;2023-04-24T00:19:36;1.65;;;0.75;;
56267;SDS011;42175;46.930;9.532;2023-04-24T00:22:02;5.78;;;0.68;;
56267;SDS011;42175;46.930;9.532;2023-04-24T00:24:28;4.22;;;0.95;;
56267;SDS011;42175;46.930;9.532;2023-04-24T00:26:54;3.28;;;1.30;;
56267;SDS011;42175;46.930;9.532;2023-04-24T00:29:19;1.95;;;0.65;;
56267;SDS011;42175;46.930;9.532;2023-04-24T00:31:45;5.80;;;0.80;;
56267;SDS011;42175;46.930;9.532;2023-04-24T00:34:11;1.05;;;0.60;;
56267;SDS011;42175;46.930;9.532;2023-04-24T00:36:37;1.75;;;0.80;;
56267;SDS011;42175;46.930;9.532;2023-04-24T00:39:03;5.63;;;0.93;;
56267;SDS011;42175;46.930;9.532;2023-04-24T00:41:29;2.33;;;0.95;;
56267;SDS011;42175;46.930;9.532;2023-04-24T00:43:55;3.95;;;0.75;;
56267;SDS011;42175;46.930;9.532;2023-04-24T00:46:21;2.67;;;0.93;;
56267;SDS011;42175;46.930;9.532;2023-04-24T00:48:47;2.28;;;0.70;;
56267;SDS011;42175;46.930;9.532;2023-04-24T00:51:13;3.83;;;0.80;;
56267;SDS011;42175;46.930;9.532;2023-04-24T00:53:39;3.05;;;0.98;;
56267;SDS011;42175;46.930;9.532;2023-04-24T00:56:05;3.70;;;0.73;;
56267;SDS011;42175;46.930;9.532;2023-04-24T00:58:31;3.17;;;0.95;;
56267;SDS011;42175;46.930;9.532;2023-04-24T01:00:57;3.10;;;0.73;;
56267;SDS011;42175;46.930;9.532;2023-04-24T01:03:26;1.95;;;0.80;;
56267;SDS011;42175;46.930;9.532;2023-04-24T01:05:55;2.45;;;0.95;;
56267;SDS011;42175;46.930;9.532;2023-04-24T01:08:23;3.70;;;1.30;;
56267;SDS011;42175;46.930;9.532;2023-04-24T01:10:51;3.13;;;0.70;;
56267;SDS011;42175;46.930;9.532;2023-04-24T01:13:21;2.08;;;0.65;;
56267;SDS011;42175;46.930;9.532;2023-04-24T01:15:47;3.42;;;0.70;;
56267;SDS011;42175;46.930;9.532;2023-04-24T01:18:13;3.08;;;0.70;;
56267;SDS011;42175;46.930;9.532;2023-04-24T01:20:40;3.33;;;1.10;;
56267;SDS011;42175;46.930;9.532;2023-04-24T01:23:09;3.25;;;0.93;;
56267;SDS011;42175;46.930;9.532;2023-04-24T01:25:35;3.25;;;1.55;;
56267;SDS011;42175;46.930;9.532;2023-04-24T01:28:02;5.00;;;1.00;;
56267;SDS011;42175;46.930;9.532;2023-04-24T01:30:29;1.52;;;1.20;;
56267;SDS011;42175;46.930;9.532;2023-04-24T01:32:56;3.53;;;1.00;;
56267;SDS011;42175;46.930;9.532;2023-04-24T01:35:22;1.75;;;0.70;;
56267;SDS011;42175;46.930;9.532;2023-04-24T01:37:47;1.98;;;0.90;;
56267;SDS011;42175;46.930;9.532;2023-04-24T01:40:13;2.38;;;1.00;;
56267;SDS011;42175;46.930;9.532;2023-04-24T01:42:40;4.03;;;0.90;;
56267;SDS011;42175;46.930;9.532;2023-04-24T01:45:07;2.25;;;0.90;;
56267;SDS011;42175;46.930;9.532;2023-04-24T01:47:36;3.13;;;1.05;;
56267;SDS011;42175;46.930;9.532;2023-04-24T01:50:03;1.98;;;0.80;;
56267;SDS011;42175;46.930;9.532;2023-04-24T01:52:29;2.88;;;0.93;;
56267;SDS011;42175;46.930;9.532;2023-04-24T01:54:56;4.28;;;0.80;;
56267;SDS011;42175;46.930;9.532;2023-04-24T01:57:24;2.50;;;1.23;;
56267;SDS011;42175;46.930;9.532;2023-04-24T01:59:50;3.03;;;0.93;;
56267;SDS011;42175;46.930;9.532;2023-04-24T02:02:16;5.63;;;1.33;;
56267;SDS011;42175;46.930;9.532;2023-04-24T02:04:42;2.17;;;0.80;;
56267;SDS011;42175;46.930;9.532;2023-04-24T02:07:08;3.05;;;0.88;;
56267;SDS011;42175;46.930;9.532;2023-04-24T02:09:34;4.32;;;1.00;;
56267;SDS011;42175;46.930;9.532;2023-04-24T02:11:59;8.13;;;1.00;;
56267;SDS011;42175;46.930;9.532;2023-04-24T02:14:25;3.13;;;1.08;;
56267;SDS011;42175;46.930;9.532;2023-04-24T02:16:51;2.78;;;1.17;;
56267;SDS011;42175;46.930;9.532;2023-04-24T02:19:18;2.53;;;0.88;;
56267;SDS011;42175;46.930;9.532;2023-04-24T02:21:44;3.58;;;1.08;;
56267;SDS011;42175;46.930;9.532;2023-04-24T02:24:10;9.80;;;1.20;;
56267;SDS011;42175;46.930;9.532;2023-04-24T02:26:35;3.42;;;1.42;;
56267;SDS011;42175;46.930;9.532;2023-04-24T02:29:01;2.47;;;1.13;;
56267;SDS011;42175;46.930;9.532;2023-04-24T02:31:27;1.58;;;0.82;;
56267;SDS011;42175;46.930;9.532;2023-04-24T02:33:53;1.52;;;0.90;;
56267;SDS011;42175;46.930;9.532;2023-04-24T02:36:18;3.30;;;1.20;;
56267;SDS011;42175;46.930;9.532;2023-04-24T02:38:44;3.13;;;0.90;;
56267;SDS011;42175;46.930;9.532;2023-04-24T02:41:10;4.35;;;0.90;;
56267;SDS011;42175;46.930;9.532;2023-04-24T02:43:36;2.80;;;1.00;;
56267;SDS011;42175;46.930;9.532;2023-04-24T02:46:01;3.92;;;0.90;;
56267;SDS011;42175;46.930;9.532;2023-04-24T02:48:27;5.60;;;1.20;;
56267;SDS011;42175;46.930;9.532;2023-04-24T02:50:53;3.78;;;1.27;;
56267;SDS011;42175;46.930;9.532;2023-04-24T02:53:19;2.33;;;1.02;;
56267;SDS011;42175;46.930;9.532;2023-04-24T02:55:45;3.13;;;0.95;;
56267;SDS011;42175;46.930;9.532;2023-04-24T02:58:11;2.78;;;1.20;;
56267;SDS011;42175;46.930;9.532;2023-04-24T03:00:38;7.18;;;1.08;;
56267;SDS011;42175;46.930;9.532;2023-04-24T03:03:04;2.95;;;1.10;;
56267;SDS011;42175;46.930;9.532;2023-04-24T03:05:30;5.35;;;1.15;;
56267;SDS011;42175;46.930;9.532;2023-04-24T03:07:56;1.92;;;0.82;;
56267;SDS011;42175;46.930;9.532;2023-04-24T03:10:22;7.22;;;1.00;;
56267;SDS011;42175;46.930;9.532;2023-04-24T03:12:48;3.15;;;1.10;;
56267;SDS011;42175;46.930;9.532;2023-04-24T03:15:14;2.03;;;0.90;;
56267;SDS011;42175;46.930;9.532;2023-04-24T03:17:40;2.15;;;0.80;;
56267;SDS011;42175;46.930;9.532;2023-04-24T03:20:06;6.10;;;0.80;;
56267;SDS011;42175;46.930;9.532;2023-04-24T03:22:36;2.63;;;0.85;;
56267;SDS011;42175;46.930;9.532;2023-04-24T03:25:01;2.63;;;1.00;;
56267;SDS011;42175;46.930;9.532;2023-04-24T03:27:27;5.03;;;1.70;;
56267;SDS011;42175;46.930;9.532;2023-04-24T03:29:53;2.22;;;1.13;;
56267;SDS011;42175;46.930;9.532;2023-04-24T03:32:23;2.95;;;0.90;;
56267;SDS011;42175;46.930;9.532;2023-04-24T03:34:49;2.22;;;0.80;;
56267;SDS011;42175;46.930;9.532;2023-04-24T03:37:15;1.15;;;0.52;;
56267;SDS011;42175;46.930;9.532;2023-04-24T03:39:42;3.70;;;0.70;;
56267;SDS011;42175;46.930;9.532;2023-04-24T03:42:08;5.15;;;0.88;;
56267;SDS011;42175;46.930;9.532;2023-04-24T03:44:35;2.38;;;0.75;;
56267;SDS011;42175;46.930;9.532;2023-04-24T03:47:01;2.28;;;0.70;;
56267;SDS011;42175;46.930;9.532;2023-04-24T03:49:27;2.65;;;0.73;;
56267;SDS011;42175;46.930;9.532;2023-04-24T03:51:52;3.17;;;1.00;;
56267;SDS011;42175;46.930;9.532;2023-04-24T03:54:19;2.58;;;0.95;;
56267;SDS011;42175;46.930;9.532;2023-04-24T03:56:45;2.83;;;1.05;;
56267;SDS011;42175;46.930;9.532;2023-04-24T03:59:11;5.05;;;1.20;;
56267;SDS011;42175;46.930;9.532;2023-04-24T04:01:37;2.90;;;1.08;;
56267;SDS011;42175;46.930;9.532;2023-04-24T04:04:03;7.10;;;1.10;;
56267;SDS011;42175;46.930;9.532;2023-04-24T04:06:29;5.82;;;0.80;;
56267;SDS011;42175;46.930;9.532;2023-04-24T04:08:56;1.60;;;0.60;;
56267;SDS011;42175;46.930;9.532;2023-04-24T04:11:22;1.73;;;0.60;;
56267;SDS011;42175;46.930;9.532;2023-04-24T04:13:48;0.98;;;0.60;;
56267;SDS011;42175;46.930;9.532;2023-04-24T04:16:14;2.10;;;0.90;;
56267;SDS011;42175;46.930;9.532;2023-04-24T04:18:42;4.90;;;1.05;;
56267;SDS011;42175;46.930;9.532;2023-04-24T04:21:08;1.23;;;0.70;;
56267;SDS011;42175;46.930;9.532;2023-04-24T04:23:34;3.08;;;0.90;;
56267;SDS011;42175;46.930;9.532;2023-04-24T04:25:59;5.45;;;0.82;;
56267;SDS011;42175;46.930;9.532;2023-04-24T04:28:26;4.32;;;0.77;;
56267;SDS011;42175;46.930;9.532;2023-04-24T04:30:52;2.45;;;0.73;;
56267;SDS011;42175;46.930;9.532;2023-04-24T04:33:22;2.70;;;0.60;;
56267;SDS011;42175;46.930;9.532;2023-04-24T04:35:49;3.90;;;0.70;;
56267;SDS011;42175;46.930;9.532;2023-04-24T04:38:17;0.95;;;0.60;;
56267;SDS011;42175;46.930;9.532;2023-04-24T04:40:44;3.03;;;0.88;;
56267;SDS011;42175;46.930;9.532;2023-04-24T04:43:10;2.00;;;0.70;;
56267;SDS011;42175;46.930;9.532;2023-04-24T04:45:38;2.38;;;0.70;;
56267;SDS011;42175;46.930;9.532;2023-04-24T04:48:05;1.50;;;0.90;;
56267;SDS011;42175;46.930;9.532;2023-04-24T04:50:33;2.20;;;1.05;;
56267;SDS011;42175;46.930;9.532;2023-04-24T04:53:00;2.03;;;0.80;;
56267;SDS011;42175;46.930;9.532;2023-04-24T04:55:25;1.95;;;0.80;;
56267;SDS011;42175;46.930;9.532;2023-04-24T04:57:51;3.97;;;1.05;;
56267;SDS011;42175;46.930;9.532;2023-04-24T05:00:17;3.78;;;1.00;;
56267;SDS011;42175;46.930;9.532;2023-04-24T05:02:44;2.70;;;1.00;;
56267;SDS011;42175;46.930;9.532;2023-04-24T05:05:09;2.42;;;1.08;;
56267;SDS011;42175;46.930;9.532;2023-04-24T05:07:35;4.72;;;1.27;;
56267;SDS011;42175;46.930;9.532;2023-04-24T05:10:01;4.60;;;1.40;;
56267;SDS011;42175;46.930;9.532;2023-04-24T05:12:28;3.67;;;1.30;;
56267;SDS011;42175;46.930;9.532;2023-04-24T05:14:53;3.83;;;1.10;;
56267;SDS011;42175;46.930;9.532;2023-04-24T05:17:19;5.03;;;1.45;;
56267;SDS011;42175;46.930;9.532;2023-04-24T05:19:45;3.40;;;1.40;;
56267;SDS011;42175;46.930;9.532;2023-04-24T05:22:11;4.30;;;1.30;;
56267;SDS011;42175;46.930;9.532;2023-04-24T05:24:37;5.43;;;1.20;;
56267;SDS011;42175;46.930;9.532;2023-04-24T05:27:03;3.83;;;1.85;;
56267;SDS011;42175;46.930;9.532;2023-04-24T05:29:32;3.67;;;1.30;;
56267;SDS011;42175;46.930;9.532;2023-04-24T05:31:58;3.45;;;1.60;;
56267;SDS011;42175;46.930;9.532;2023-04-24T05:34:25;3.80;;;1.40;;
56267;SDS011;42175;46.930;9.532;2023-04-24T05:36:51;3.85;;;1.40;;
56267;SDS011;42175;46.930;9.532;2023-04-24T05:39:17;3.97;;;1.25;;
56267;SDS011;42175;46.930;9.532;2023-04-24T05:41:43;5.28;;;1.50;;
56267;SDS011;42175;46.930;9.532;2023-04-24T05:44:09;4.30;;;1.25;;
56267;SDS011;42175;46.930;9.532;2023-04-24T05:46:35;4.63;;;1.67;;
56267;SDS011;42175;46.930;9.532;2023-04-24T05:49:00;7.90;;;1.33;;
56267;SDS011;42175;46.930;9.532;2023-04-24T05:51:27;9.80;;;2.20;;
56267;SDS011;42175;46.930;9.532;2023-04-24T05:53:53;13.00;;;1.63;;
56267;SDS011;42175;46.930;9.532;2023-04-24T05:56:19;14.30;;;2.08;;
56267;SDS011;42175;46.930;9.532;2023-04-24T05:58:45;4.97;;;1.73;;
56267;SDS011;42175;46.930;9.532;2023-04-24T06:01:11;7.32;;;1.60;;
56267;SDS011;42175;46.930;9.532;2023-04-24T06:03:40;6.75;;;2.25;;
56267;SDS011;42175;46.930;9.532;2023-04-24T06:06:06;7.50;;;2.15;;
56267;SDS011;42175;46.930;9.532;2023-04-24T06:08:33;11.38;;;2.22;;
56267;SDS011;42175;46.930;9.532;2023-04-24T06:10:59;8.43;;;2.03;;
56267;SDS011;42175;46.930;9.532;2023-04-24T06:13:25;6.57;;;2.00;;
56267;SDS011;42175;46.930;9.532;2023-04-24T06:15:52;11.60;;;1.90;;
56267;SDS011;42175;46.930;9.532;2023-04-24T06:18:18;11.27;;;2.00;;
56267;SDS011;42175;46.930;9.532;2023-04-24T06:20:44;7.72;;;2.38;;
56267;SDS011;42175;46.930;9.532;2023-04-24T06:23:11;7.20;;;1.90;;
56267;SDS011;42175;46.930;9.532;2023-04-24T06:25:37;6.50;;;2.42;;
56267;SDS011;42175;46.930;9.532;2023-04-24T06:28:03;8.23;;;1.95;;
56267;SDS011;42175;46.930;9.532;2023-04-24T06:30:29;11.73;;;2.20;;
56267;SDS011;42175;46.930;9.532;2023-04-24T06:32:55;7.05;;;2.17;;
56267;SDS011;42175;46.930;9.532;2023-04-24T06:35:21;6.63;;;2.10;;
56267;SDS011;42175;46.930;9.532;2023-04-24T06:37:47;8.90;;;2.35;;
56267;SDS011;42175;46.930;9.532;2023-04-24T06:40:13;7.03;;;1.77;;
56267;SDS011;42175;46.930;9.532;2023-04-24T06:42:39;6.47;;;1.73;;
56267;SDS011;42175;46.930;9.532;2023-04-24T06:45:05;11.65;;;2.80;;
56267;SDS011;42175;46.930;9.532;2023-04-24T06:47:31;7.60;;;2.70;;
56267;SDS011;42175;46.930;9.532;2023-04-24T06:49:57;5.38;;;2.53;;
56267;SDS011;42175;46.930;9.532;2023-04-24T06:52:23;6.30;;;2.38;;
56267;SDS011;42175;46.930;9.532;2023-04-24T06:54:49;5.28;;;1.88;;
56267;SDS011;42175;46.930;9.532;2023-04-24T06:57:15;5.55;;;2.38;;
56267;SDS011;42175;46.930;9.532;2023-04-24T06:59:41;5.90;;;2.00;;
56267;SDS011;42175;46.930;9.532;2023-04-24T07:02:07;7.55;;;2.20;;
56267;SDS011;42175;46.930;9.532;2023-04-24T07:04:33;8.32;;;2.10;;
56267;SDS011;42175;46.930;9.532;2023-04-24T07:06:59;5.70;;;2.30;;
56267;SDS011;42175;46.930;9.532;2023-04-24T07:09:26;5.85;;;1.90;;
56267;SDS011;42175;46.930;9.532;2023-04-24T07:11:52;5.03;;;1.92;;
56267;SDS011;42175;46.930;9.532;2023-04-24T07:14:18;5.70;;;2.03;;
56267;SDS011;42175;46.930;9.532;2023-04-24T07:16:44;7.57;;;1.92;;
56267;SDS011;42175;46.930;9.532;2023-04-24T07:19:11;6.68;;;1.80;;
56267;SDS011;42175;46.930;9.532;2023-04-24T07:21:38;5.72;;;2.00;;
56267;SDS011;42175;46.930;9.532;2023-04-24T07:24:03;5.43;;;1.80;;
56267;SDS011;42175;46.930;9.532;2023-04-24T07:26:30;4.57;;;1.70;;
56267;SDS011;42175;46.930;9.532;2023-04-24T07:28:56;5.15;;;1.63;;
56267;SDS011;42175;46.930;9.532;2023-04-24T07:31:22;3.80;;;1.90;;
56267;SDS011;42175;46.930;9.532;2023-04-24T07:33:48;8.98;;;1.63;;
56267;SDS011;42175;46.930;9.532;2023-04-24T07:36:14;6.43;;;1.83;;
56267;SDS011;42175;46.930;9.532;2023-04-24T07:38:44;9.85;;;2.13;;
56267;SDS011;42175;46.930;9.532;2023-04-24T07:41:13;6.97;;;2.10;;
56267;SDS011;42175;46.930;9.532;2023-04-24T07:43:40;23.33;;;2.50;;
56267;SDS011;42175;46.930;9.532;2023-04-24T07:46:07;13.65;;;2.33;;
56267;SDS011;42175;46.930;9.532;2023-04-24T07:48:33;12.63;;;1.65;;
56267;SDS011;42175;46.930;9.532;2023-04-24T07:51:00;6.10;;;1.70;;
56267;SDS011;42175;46.930;9.532;2023-04-24T07:53:25;15.45;;;2.20;;
56267;SDS011;42175;46.930;9.532;2023-04-24T07:55:51;7.60;;;3.90;;
56267;SDS011;42175;46.930;9.532;2023-04-24T07:58:17;15.50;;;5.43;;
56267;SDS011;42175;46.930;9.532;2023-04-24T08:00:43;7.85;;;3.70;;
56267;SDS011;42175;46.930;9.532;2023-04-24T08:03:08;14.73;;;4.28;;
56267;SDS011;42175;46.930;9.532;2023-04-24T08:05:34;7.32;;;4.05;;
56267;SDS011;42175;46.930;9.532;2023-04-24T08:08:00;5.13;;;2.97;;
56267;SDS011;42175;46.930;9.532;2023-04-24T08:10:25;4.75;;;3.28;;
56267;SDS011;42175;46.930;9.532;2023-04-24T08:12:51;5.40;;;3.53;;
56267;SDS011;42175;46.930;9.532;2023-04-24T08:15:17;4.95;;;3.47;;
56267;SDS011;42175;46.930;9.532;2023-04-24T08:17:43;7.90;;;4.18;;
56267;SDS011;42175;46.930;9.532;2023-04-24T08:20:10;9.52;;;4.20;;
56267;SDS011;42175;46.930;9.532;2023-04-24T08:22:40;8.90;;;4.45;;
56267;SDS011;42175;46.930;9.532;2023-04-24T08:25:06;7.63;;;2.60;;
56267;SDS011;42175;46.930;9.532;2023-04-24T08:27:33;3.25;;;1.60;;
56267;SDS011;42175;46.930;9.532;2023-04-24T08:29:58;3.90;;;1.20;;
56267;SDS011;42175;46.930;9.532;2023-04-24T08:32:25;19.00;;;3.88;;
56267;SDS011;42175;46.930;9.532;2023-04-24T08:34:54;9.93;;;2.80;;
56267;SDS011;42175;46.930;9.532;2023-04-24T08:37:21;6.13;;;1.65;;
56267;SDS011;42175;46.930;9.532;2023-04-24T08:39:48;9.27;;;2.00;;
56267;SDS011;42175;46.930;9.532;2023-04-24T08:42:14;7.68;;;1.48;;
56267;SDS011;42175;46.930;9.532;2023-04-24T08:44:42;5.32;;;1.40;;
56267;SDS011;42175;46.930;9.532;2023-04-24T08:47:09;1.63;;;0.90;;
56267;SDS011;42175;46.930;9.532;2023-04-24T08:49:36;1.95;;;1.10;;
56267;SDS011;42175;46.930;9.532;2023-04-24T08:52:04;3.20;;;1.15;;
56267;SDS011;42175;46.930;9.532;2023-04-24T08:54:31;9.02;;;5.25;;
56267;SDS011;42175;46.930;9.532;2023-04-24T08:56:59;4.22;;;2.50;;
56267;SDS011;42175;46.930;9.532;2023-04-24T08:59:27;7.00;;;2.40;;
56267;SDS011;42175;46.930;9.532;2023-04-24T09:01:53;5.20;;;3.42;;
56267;SDS011;42175;46.930;9.532;2023-04-24T09:04:20;10.60;;;2.90;;
56267;SDS011;42175;46.930;9.532;2023-04-24T09:06:58;8.80;;;3.13;;
56267;SDS011;42175;46.930;9.532;2023-04-24T09:09:25;9.27;;;3.13;;
56267;SDS011;42175;46.930;9.532;2023-04-24T09:11:51;10.57;;;3.63;;
56267;SDS011;42175;46.930;9.532;2023-04-24T09:14:20;11.90;;;4.00;;
56267;SDS011;42175;46.930;9.532;2023-04-24T09:16:48;15.48;;;4.30;;
56267;SDS011;42175;46.930;9.532;2023-04-24T09:19:14;19.38;;;3.90;;
56267;SDS011;42175;46.930;9.532;2023-04-24T09:21:39;10.60;;;3.25;;
56267;SDS011;42175;46.930;9.532;2023-04-24T09:24:14;21.52;;;3.72;;
56267;SDS011;42175;46.930;9.532;2023-04-24T09:26:45;15.73;;;3.28;;
56267;SDS011;42175;46.930;9.532;2023-04-24T09:29:15;10.00;;;2.60;;
56267;SDS011;42175;46.930;9.532;2023-04-24T09:31:42;10.40;;;2.30;;
56267;SDS011;42175;46.930;9.532;2023-04-24T09:34:08;14.05;;;2.58;;
56267;SDS011;42175;46.930;9.532;2023-04-24T09:36:35;12.05;;;2.67;;
56267;SDS011;42175;46.930;9.532;2023-04-24T09:39:07;9.80;;;2.33;;
56267;SDS011;42175;46.930;9.532;2023-04-24T09:41:43;10.63;;;2.30;;
56267;SDS011;42175;46.930;9.532;2023-04-24T09:44:21;5.78;;;1.90;;
56267;SDS011;42175;46.930;9.532;2023-04-24T09:46:58;11.38;;;2.47;;
56267;SDS011;42175;46.930;9.532;2023-04-24T09:49:28;13.27;;;2.40;;
56267;SDS011;42175;46.930;9.532;2023-04-24T09:52:10;10.05;;;2.50;;
56267;SDS011;42175;46.930;9.532;2023-04-24T09:54:37;7.07;;;2.58;;
56267;SDS011;42175;46.930;9.532;2023-04-24T09:57:03;5.60;;;1.30;;
56267;SDS011;42175;46.930;9.532;2023-04-24T09:59:29;7.25;;;1.70;;
56267;SDS011;42175;46.930;9.532;2023-04-24T10:01:55;11.65;;;1.33;;
56267;SDS011;42175;46.930;9.532;2023-04-24T10:04:23;13.27;;;1.58;;
56267;SDS011;42175;46.930;9.532;2023-04-24T10:06:51;8.35;;;1.92;;
56267;SDS011;42175;46.930;9.532;2023-04-24T10:09:19;8.40;;;2.15;;
56267;SDS011;42175;46.930;9.532;2023-04-24T10:11:47;4.43;;;1.20;;
56267;SDS011;42175;46.930;9.532;2023-04-24T10:14:15;12.27;;;1.70;;
56267;SDS011;42175;46.930;9.532;2023-04-24T10:16:48;161.60;;;7.85;;
56267;SDS011;42175;46.930;9.532;2023-04-24T10:19:15;20.17;;;2.08;;
56267;SDS011;42175;46.930;9.532;2023-04-24T10:21:44;16.27;;;2.10;;
56267;SDS011;42175;46.930;9.532;2023-04-24T10:24:16;29.40;;;3.63;;
56267;SDS011;42175;46.930;9.532;2023-04-24T10:26:44;19.13;;;2.88;;
56267;SDS011;42175;46.930;9.532;2023-04-24T10:29:14;14.88;;;3.65;;
56267;SDS011;42175;46.930;9.532;2023-04-24T10:31:41;24.63;;;4.40;;
56267;SDS011;42175;46.930;9.532;2023-04-24T10:34:10;21.50;;;4.30;;
56267;SDS011;42175;46.930;9.532;2023-04-24T10:36:40;19.58;;;3.53;;
56267;SDS011;42175;46.930;9.532;2023-04-24T10:39:11;19.48;;;3.45;;
56267;SDS011;42175;46.930;9.532;2023-04-24T10:41:39;15.63;;;2.90;;
56267;SDS011;42175;46.930;9.532;2023-04-24T10:44:06;15.95;;;3.20;;
56267;SDS011;42175;46.930;9.532;2023-04-24T10:46:37;20.55;;;2.53;;
56267;SDS011;42175;46.930;9.532;2023-04-24T10:49:04;12.20;;;2.78;;
56267;SDS011;42175;46.930;9.532;2023-04-24T10:51:52;9.18;;;2.45;;
56267;SDS011;42175;46.930;9.532;2023-04-24T10:54:35;10.70;;;2.63;;
56267;SDS011;42175;46.930;9.532;2023-04-24T10:59:45;10.02;;;2.17;;
56267;SDS011;42175;46.930;9.532;2023-04-24T11:02:16;11.18;;;2.10;;
56267;SDS011;42175;46.930;9.532;2023-04-24T11:04:42;7.65;;;2.20;;
56267;SDS011;42175;46.930;9.532;2023-04-24T11:07:10;10.77;;;2.90;;
56267;SDS011;42175;46.930;9.532;2023-04-24T11:09:36;5.75;;;1.52;;
56267;SDS011;42175;46.930;9.532;2023-04-24T11:12:09;7.28;;;1.80;;
56267;SDS011;42175;46.930;9.532;2023-04-24T11:20:05;10.48;;;1.60;;
56267;SDS011;42175;46.930;9.532;2023-04-24T11:22:35;11.60;;;2.20;;
56267;SDS011;42175;46.930;9.532;2023-04-24T11:25:02;6.68;;;1.60;;
56267;SDS011;42175;46.930;9.532;2023-04-24T11:27:37;8.50;;;1.55;;
56267;SDS011;42175;46.930;9.532;2023-04-24T11:30:05;6.65;;;1.80;;
56267;SDS011;42175;46.930;9.532;2023-04-24T11:35:01;8.02;;;1.27;;
56267;SDS011;42175;46.930;9.532;2023-04-24T11:37:40;12.73;;;1.45;;
56267;SDS011;42175;46.930;9.532;2023-04-24T11:40:08;5.97;;;1.85;;
56267;SDS011;42175;46.930;9.532;2023-04-24T11:42:45;4.95;;;1.52;;
56267;SDS011;42175;46.930;9.532;2023-04-24T11:45:13;3.60;;;1.23;;
56267;SDS011;42175;46.930;9.532;2023-04-24T11:47:39;8.15;;;1.60;;
56267;SDS011;42175;46.930;9.532;2023-04-24T11:50:07;3.33;;;1.10;;
56267;SDS011;42175;46.930;9.532;2023-04-24T11:52:37;3.03;;;1.45;;
56267;SDS011;42175;46.930;9.532;2023-04-24T11:55:06;4.90;;;1.38;;
56267;SDS011;42175;46.930;9.532;2023-04-24T11:57:34;3.47;;;1.50;;
56267;SDS011;42175;46.930;9.532;2023-04-24T12:00:02;5.28;;;1.35;;
56267;SDS011;42175;46.930;9.532;2023-04-24T12:02:33;9.23;;;1.60;;
56267;SDS011;42175;46.930;9.532;2023-04-24T12:04:58;2.42;;;1.20;;
56267;SDS011;42175;46.930;9.532;2023-04-24T12:07:24;5.45;;;1.33;;
56267;SDS011;42175;46.930;9.532;2023-04-24T12:09:57;7.43;;;1.17;;
56267;SDS011;42175;46.930;9.532;2023-04-24T12:12:28;4.05;;;1.10;;
56267;SDS011;42175;46.930;9.532;2023-04-24T12:14:55;5.43;;;1.00;;
56267;SDS011;42175;46.930;9.532;2023-04-24T12:17:31;3.15;;;1.20;;
56267;SDS011;42175;46.930;9.532;2023-04-24T12:19:59;2.83;;;1.30;;
56267;SDS011;42175;46.930;9.532;2023-04-24T12:22:28;3.75;;;1.42;;
56267;SDS011;42175;46.930;9.532;2023-04-24T12:27:38;2.67;;;1.30;;
56267;SDS011;42175;46.930;9.532;2023-04-24T12:30:04;3.25;;;1.05;;
56267;SDS011;42175;46.930;9.532;2023-04-24T12:32:34;3.45;;;1.20;;
56267;SDS011;42175;46.930;9.532;2023-04-24T12:35:00;1.95;;;0.95;;
56267;SDS011;42175;46.930;9.532;2023-04-24T12:37:32;4.63;;;1.10;;
56267;SDS011;42175;46.930;9.532;2023-04-24T12:39:59;4.07;;;1.25;;
56267;SDS011;42175;46.930;9.532;2023-04-24T12:42:31;2.20;;;1.02;;
56267;SDS011;42175;46.930;9.532;2023-04-24T12:45:02;3.85;;;1.35;;
56267;SDS011;42175;46.930;9.532;2023-04-24T12:47:31;21.25;;;17.05;;
56267;SDS011;42175;46.930;9.532;2023-04-24T12:49:58;22.70;;;17.80;;
56267;SDS011;42175;46.930;9.532;2023-04-24T12:52:25;17.23;;;13.18;;
56267;SDS011;42175;46.930;9.532;2023-04-24T12:54:56;15.38;;;10.30;;
56267;SDS011;42175;46.930;9.532;2023-04-24T12:57:24;11.23;;;8.35;;
56267;SDS011;42175;46.930;9.532;2023-04-24T12:59:52;9.75;;;7.57;;
56267;SDS011;42175;46.930;9.532;2023-04-24T13:02:25;8.98;;;6.90;;
56267;SDS011;42175;46.930;9.532;2023-04-24T13:04:52;9.85;;;6.93;;
56267;SDS011;42175;46.930;9.532;2023-04-24T13:07:19;12.70;;;6.60;;
56267;SDS011;42175;46.930;9.532;2023-04-24T13:09:45;10.82;;;6.47;;
56267;SDS011;42175;46.930;9.532;2023-04-24T13:12:12;7.97;;;5.47;;
56267;SDS011;42175;46.930;9.532;2023-04-24T13:14:38;7.93;;;5.50;;
56267;SDS011;42175;46.930;9.532;2023-04-24T13:17:04;8.10;;;6.13;;
56267;SDS011;42175;46.930;9.532;2023-04-24T13:19:34;6.90;;;5.68;;
56267;SDS011;42175;46.930;9.532;2023-04-24T13:22:02;15.07;;;5.88;;
56267;SDS011;42175;46.930;9.532;2023-04-24T13:24:29;12.05;;;4.68;;
56267;SDS011;42175;46.930;9.532;2023-04-24T13:26:56;7.20;;;4.53;;
56267;SDS011;42175;46.930;9.532;2023-04-24T13:29:22;10.23;;;2.88;;
56267;SDS011;42175;46.930;9.532;2023-04-24T13:31:51;7.50;;;2.28;;
56267;SDS011;42175;46.930;9.532;2023-04-24T13:34:19;5.90;;;2.10;;
56267;SDS011;42175;46.930;9.532;2023-04-24T13:36:46;3.60;;;1.88;;
56267;SDS011;42175;46.930;9.532;2023-04-24T13:39:11;5.75;;;1.80;;
56267;SDS011;42175;46.930;9.532;2023-04-24T13:41:37;4.10;;;1.70;;
56267;SDS011;42175;46.930;9.532;2023-04-24T13:44:03;3.38;;;1.70;;
56267;SDS011;42175;46.930;9.532;2023-04-24T13:46:32;3.65;;;1.70;;
56267;SDS011;42175;46.930;9.532;2023-04-24T13:48:58;4.88;;;1.90;;
56267;SDS011;42175;46.930;9.532;2023-04-24T13:51:25;6.28;;;2.17;;
56267;SDS011;42175;46.930;9.532;2023-04-24T13:53:54;16.17;;;3.33;;
56267;SDS011;42175;46.930;9.532;2023-04-24T13:56:20;18.35;;;3.65;;
56267;SDS011;42175;46.930;9.532;2023-04-24T13:58:47;8.77;;;2.90;;
56267;SDS011;42175;46.930;9.532;2023-04-24T14:01:13;14.38;;;5.45;;
56267;SDS011;42175;46.930;9.532;2023-04-24T14:03:40;14.55;;;6.50;;
56267;SDS011;42175;46.930;9.532;2023-04-24T14:06:08;15.27;;;4.88;;
56267;SDS011;42175;46.930;9.532;2023-04-24T14:08:34;11.75;;;5.25;;
56267;SDS011;42175;46.930;9.532;2023-04-24T14:11:00;24.60;;;8.85;;
56267;SDS011;42175;46.930;9.532;2023-04-24T14:13:25;24.38;;;10.10;;
56267;SDS011;42175;46.930;9.532;2023-04-24T14:15:52;30.38;;;13.60;;
56267;SDS011;42175;46.930;9.532;2023-04-24T14:18:18;35.33;;;11.65;;
56267;SDS011;42175;46.930;9.532;2023-04-24T14:20:44;29.77;;;14.85;;
56267;SDS011;42175;46.930;9.532;2023-04-24T14:23:10;28.70;;;13.55;;
56267;SDS011;42175;46.930;9.532;2023-04-24T14:25:36;35.85;;;15.85;;
56267;SDS011;42175;46.930;9.532;2023-04-24T14:28:02;25.55;;;11.80;;
56267;SDS011;42175;46.930;9.532;2023-04-24T14:30:27;25.88;;;11.57;;
56267;SDS011;42175;46.930;9.532;2023-04-24T14:32:53;24.92;;;12.02;;
56267;SDS011;42175;46.930;9.532;2023-04-24T14:35:19;19.75;;;11.07;;
56267;SDS011;42175;46.930;9.532;2023-04-24T14:37:45;23.35;;;11.57;;
56267;SDS011;42175;46.930;9.532;2023-04-24T14:40:10;19.55;;;11.40;;
56267;SDS011;42175;46.930;9.532;2023-04-24T14:42:36;17.35;;;8.98;;
56267;SDS011;42175;46.930;9.532;2023-04-24T14:45:02;21.30;;;9.35;;
56267;SDS011;42175;46.930;9.532;2023-04-24T14:47:28;20.15;;;8.90;;
56267;SDS011;42175;46.930;9.532;2023-04-24T14:49:54;12.75;;;7.53;;
56267;SDS011;42175;46.930;9.532;2023-04-24T14:52:20;10.63;;;5.47;;
56267;SDS011;42175;46.930;9.532;2023-04-24T14:54:46;13.23;;;6.10;;